createdAt,value
2018-09-06T00:00:04.635Z,17.42
2018-09-06T00:02:34.064Z,17.47
2018-09-06T00:05:02.996Z,17.41
2018-09-06T00:07:31.763Z,17.37
2018-09-06T00:10:00.553Z,17.31
2018-09-06T00:12:29.568Z,17.35
2018-09-06T00:14:58.379Z,17.37
2018-09-06T00:17:27.812Z,17.01
2018-09-06T00:19:56.744Z,17.24
2018-09-06T00:22:25.572Z,17.26
2018-09-06T00:24:54.710Z,17.37
2018-09-06T00:27:23.548Z,17.18
2018-09-06T00:29:52.231Z,17.03
2018-09-06T00:32:21.265Z,17.06
2018-09-06T00:34:50.011Z,17.17
2018-09-06T00:37:18.707Z,17.06
2018-09-06T00:39:47.738Z,17.09
2018-09-06T00:42:16.696Z,17.06
2018-09-06T00:44:45.990Z,17.08
2018-09-06T00:47:15.109Z,17.03
2018-09-06T00:49:44.028Z,17.14
2018-09-06T00:52:13.369Z,17.10
2018-09-06T00:54:42.500Z,17.10
2018-09-06T00:57:11.348Z,17.19
2018-09-06T00:59:40.190Z,17.03
2018-09-06T01:02:09.343Z,17.01
2018-09-06T01:04:38.023Z,17.03
2018-09-06T01:07:06.803Z,17.19
2018-09-06T01:09:35.848Z,17.06
2018-09-06T01:12:04.815Z,17.14
2018-09-06T01:14:33.879Z,17.16
2018-09-06T01:17:02.985Z,17.17
2018-09-06T01:19:31.961Z,17.20
2018-09-06T01:22:00.825Z,17.20
2018-09-06T01:24:30.019Z,17.24
2018-09-06T01:26:59.321Z,17.01
2018-09-06T01:29:28.101Z,17.11
2018-09-06T01:31:56.926Z,17.10
2018-09-06T01:34:25.784Z,16.94
2018-09-06T01:36:54.606Z,17.08
2018-09-06T01:39:23.617Z,16.92
2018-09-06T01:41:52.552Z,16.92
2018-09-06T01:44:21.713Z,16.77
2018-09-06T01:46:50.754Z,16.78
2018-09-06T01:49:19.835Z,16.74
2018-09-06T01:51:48.642Z,16.76
2018-09-06T01:54:18.033Z,16.70
2018-09-06T01:56:47.123Z,16.56
2018-09-06T01:59:16.227Z,16.47
2018-09-06T02:01:45.107Z,16.46
2018-09-06T02:04:13.918Z,16.39
2018-09-06T02:06:42.716Z,16.39
2018-09-06T02:09:11.559Z,16.53
2018-09-06T02:11:41.338Z,16.54
2018-09-06T02:14:10.740Z,16.55
2018-09-06T02:16:39.892Z,16.62
2018-09-06T02:19:09.050Z,16.58
2018-09-06T02:21:38.316Z,16.66
2018-09-06T02:24:07.136Z,16.66
2018-09-06T02:26:36.127Z,16.67
2018-09-06T02:29:05.392Z,16.64
2018-09-06T02:31:34.355Z,16.78
2018-09-06T02:34:03.169Z,16.85
2018-09-06T02:36:32.274Z,16.85
2018-09-06T02:39:01.051Z,16.89
2018-09-06T02:41:30.347Z,17.00
2018-09-06T02:43:59.278Z,16.99
2018-09-06T02:46:28.396Z,17.12
2018-09-06T02:48:57.635Z,17.08
2018-09-06T02:51:26.816Z,17.08
2018-09-06T02:53:55.637Z,17.05
2018-09-06T02:56:24.418Z,17.14
2018-09-06T02:58:53.412Z,17.09
2018-09-06T03:01:22.309Z,17.20
2018-09-06T03:03:51.078Z,17.16
2018-09-06T03:06:20.106Z,17.23
2018-09-06T03:08:48.899Z,17.37
2018-09-06T03:11:20.230Z,17.36
2018-09-06T03:13:49.143Z,17.38
2018-09-06T03:16:18.366Z,17.38
2018-09-06T03:18:47.844Z,17.35
2018-09-06T03:21:16.825Z,17.17
2018-09-06T03:23:45.811Z,17.31
2018-09-06T03:26:17.281Z,17.22
2018-09-06T03:28:47.714Z,17.08
2018-09-06T03:31:17.150Z,17.03
2018-09-06T03:33:46.237Z,17.24
2018-09-06T03:36:15.318Z,17.32
2018-09-06T03:38:44.652Z,17.10
2018-09-06T03:41:13.482Z,17.21
2018-09-06T03:43:42.266Z,17.19
2018-09-06T03:46:11.818Z,17.16
2018-09-06T03:48:41.054Z,17.25
2018-09-06T03:51:09.964Z,17.20
2018-09-06T03:53:39.294Z,17.09
2018-09-06T03:56:08.570Z,17.03
2018-09-06T03:58:37.330Z,17.07
2018-09-06T04:01:06.490Z,17.13
2018-09-06T04:03:35.194Z,17.23
2018-09-06T04:06:04.012Z,17.50
2018-09-06T04:08:32.774Z,17.53
2018-09-06T04:11:01.699Z,17.49
2018-09-06T04:13:30.600Z,17.34
2018-09-06T04:15:59.715Z,17.13
2018-09-06T04:18:28.710Z,17.04
2018-09-06T04:20:57.618Z,16.96
2018-09-06T04:23:27.004Z,16.99
2018-09-06T04:25:56.068Z,16.84
2018-09-06T04:28:25.082Z,16.93
2018-09-06T04:30:54.383Z,16.97
2018-09-06T04:33:23.095Z,16.79
2018-09-06T04:35:51.747Z,16.87
2018-09-06T04:38:21.242Z,16.97
2018-09-06T04:40:50.256Z,16.94
2018-09-06T04:43:19.260Z,16.99
2018-09-06T04:45:48.483Z,17.04
2018-09-06T04:48:17.727Z,17.06
2018-09-06T04:50:46.927Z,17.05
2018-09-06T04:53:16.071Z,17.09
2018-09-06T04:55:45.040Z,17.19
2018-09-06T04:58:13.932Z,17.20
2018-09-06T05:00:43.039Z,17.29
2018-09-06T05:03:11.702Z,17.54
2018-09-06T05:05:40.451Z,17.43
2018-09-06T05:08:10.031Z,17.51
2018-09-06T05:10:39.011Z,17.49
2018-09-06T05:13:08.116Z,17.58
2018-09-06T05:15:37.966Z,17.63
2018-09-06T05:18:07.186Z,17.67
2018-09-06T05:20:36.628Z,17.73
2018-09-06T05:23:06.021Z,17.96
2018-09-06T05:25:35.215Z,17.79
2018-09-06T05:28:04.142Z,18.00
2018-09-06T05:30:33.147Z,17.91
2018-09-06T05:33:01.919Z,17.98
2018-09-06T05:35:30.553Z,18.15
2018-09-06T05:37:59.991Z,18.16
2018-09-06T05:40:28.817Z,18.05
2018-09-06T05:42:57.536Z,17.77
2018-09-06T05:45:26.279Z,17.97
2018-09-06T05:47:57.906Z,17.83
2018-09-06T05:50:28.351Z,18.30
2018-09-06T05:52:57.765Z,18.47
2018-09-06T05:55:26.934Z,18.42
2018-09-06T05:57:55.839Z,18.51
2018-09-06T06:00:29.693Z,18.53
2018-09-06T06:03:00.596Z,18.67
2018-09-06T06:05:29.473Z,18.53
2018-09-06T06:08:09.576Z,18.66
2018-09-06T06:10:38.852Z,19.00
2018-09-06T06:13:07.840Z,18.87
2018-09-06T06:15:36.947Z,19.08
2018-09-06T06:18:06.242Z,19.02
2018-09-06T06:20:35.354Z,19.01
2018-09-06T06:23:04.303Z,19.10
2018-09-06T06:25:32.966Z,19.14
2018-09-06T06:28:01.762Z,19.25
2018-09-06T06:30:30.567Z,18.81
2018-09-06T06:32:59.651Z,19.32
2018-09-06T06:35:28.398Z,19.58
2018-09-06T06:37:57.241Z,19.22
2018-09-06T06:40:26.356Z,19.31
2018-09-06T06:42:55.436Z,18.95
2018-09-06T06:45:27.625Z,18.90
2018-09-06T06:47:56.907Z,18.97
2018-09-06T06:50:25.988Z,19.08
2018-09-06T06:52:55.126Z,19.34
2018-09-06T06:55:24.271Z,19.17
2018-09-06T06:57:53.130Z,19.05
2018-09-06T07:00:22.723Z,18.92
2018-09-06T07:02:52.203Z,19.15
2018-09-06T07:05:20.871Z,19.08
2018-09-06T07:07:50.517Z,19.18
2018-09-06T07:10:19.379Z,19.11
2018-09-06T07:12:48.410Z,19.07
2018-09-06T07:15:17.699Z,19.09
2018-09-06T07:17:46.459Z,19.09
2018-09-06T07:20:15.405Z,19.11
2018-09-06T07:22:44.307Z,19.37
2018-09-06T07:25:13.185Z,19.00
2018-09-06T07:27:42.102Z,19.52
2018-09-06T07:30:10.895Z,19.68
2018-09-06T07:32:39.642Z,19.72
2018-09-06T07:35:08.799Z,19.80
2018-09-06T07:37:38.138Z,19.51
2018-09-06T07:40:07.076Z,19.50
2018-09-06T07:42:35.897Z,19.81
2018-09-06T07:45:05.627Z,19.85
2018-09-06T07:47:34.819Z,19.84
2018-09-06T07:50:03.727Z,20.02
2018-09-06T07:52:33.231Z,20.34
2018-09-06T07:55:02.305Z,20.31
2018-09-06T07:57:31.503Z,20.31
2018-09-06T08:00:00.336Z,20.50
2018-09-06T08:02:29.148Z,20.66
2018-09-06T08:04:57.927Z,20.76
2018-09-06T08:07:27.393Z,20.50
2018-09-06T08:09:56.126Z,20.55
2018-09-06T08:12:25.071Z,20.78
2018-09-06T08:14:54.383Z,21.10
2018-09-06T08:17:23.358Z,20.82
2018-09-06T08:19:52.039Z,21.09
2018-09-06T08:22:21.309Z,21.20
2018-09-06T08:24:50.215Z,21.00
2018-09-06T08:27:19.259Z,21.17
2018-09-06T08:29:48.343Z,21.14
2018-09-06T08:32:17.129Z,21.40
2018-09-06T08:34:46.260Z,21.54
2018-09-06T08:37:15.572Z,21.30
2018-09-06T08:39:44.436Z,21.81
2018-09-06T08:42:13.494Z,22.17
2018-09-06T08:44:42.806Z,21.71
2018-09-06T08:47:11.697Z,21.54
2018-09-06T08:49:40.523Z,21.47
2018-09-06T08:52:09.677Z,21.48
2018-09-06T08:54:38.508Z,21.76
2018-09-06T08:57:07.449Z,22.12
2018-09-06T08:59:36.575Z,21.99
2018-09-06T09:02:09.500Z,21.99
2018-09-06T09:04:38.971Z,22.15
2018-09-06T09:07:08.045Z,22.25
2018-09-06T09:09:36.927Z,22.30
2018-09-06T09:12:06.264Z,22.51
2018-09-06T09:14:35.417Z,22.51
2018-09-06T09:17:04.519Z,22.21
2018-09-06T09:19:33.835Z,22.14
2018-09-06T09:22:02.719Z,22.79
2018-09-06T09:24:31.539Z,22.72
2018-09-06T09:27:00.699Z,22.31
2018-09-06T09:29:29.388Z,22.36
2018-09-06T09:31:58.506Z,22.28
2018-09-06T09:34:27.722Z,22.51
2018-09-06T09:36:56.855Z,22.73
2018-09-06T09:39:25.984Z,22.58
2018-09-06T09:41:55.263Z,22.53
2018-09-06T09:44:24.460Z,22.63
2018-09-06T09:49:22.026Z,22.64
2018-09-06T09:51:50.914Z,22.72
2018-09-06T09:54:19.854Z,22.71
2018-09-06T09:56:49.102Z,22.97
2018-09-06T09:59:17.716Z,23.13
2018-09-06T10:01:51.715Z,23.48
2018-09-06T10:04:25.853Z,23.60
2018-09-06T10:07:00.361Z,24.05
2018-09-06T10:09:29.380Z,24.28
2018-09-06T10:11:58.659Z,24.30
2018-09-06T10:14:28.064Z,24.53
2018-09-06T10:16:57.591Z,24.69
2018-09-06T10:19:26.856Z,24.69
2018-09-06T10:21:56.210Z,24.67
2018-09-06T10:24:25.089Z,24.33
2018-09-06T10:26:53.843Z,24.41
2018-09-06T10:29:23.255Z,24.34
2018-09-06T10:31:52.423Z,25.27
2018-09-06T10:34:21.391Z,25.45
2018-09-06T10:36:50.584Z,25.53
2018-09-06T10:39:19.817Z,24.96
2018-09-06T10:41:48.763Z,26.28
2018-09-06T10:44:18.290Z,25.79
2018-09-06T10:46:47.264Z,24.73
2018-09-06T10:49:16.263Z,25.22
2018-09-06T10:51:45.458Z,24.84
2018-09-06T10:54:14.648Z,25.63
2018-09-06T10:56:43.480Z,25.29
2018-09-06T10:59:12.362Z,25.50
2018-09-06T11:01:41.306Z,25.42
2018-09-06T11:04:10.329Z,25.28
2018-09-06T11:06:39.673Z,25.34
2018-09-06T11:09:08.610Z,25.30
2018-09-06T11:11:37.231Z,25.60
2018-09-06T11:14:07.161Z,25.66
2018-09-06T11:16:36.138Z,26.00
2018-09-06T11:19:05.763Z,26.25
2018-09-06T11:21:35.239Z,26.09
2018-09-06T11:24:03.791Z,26.62
2018-09-06T11:26:32.571Z,27.96
2018-09-06T11:29:01.634Z,27.22
2018-09-06T11:31:30.428Z,27.22
2018-09-06T11:33:59.104Z,28.61
2018-09-06T11:36:28.630Z,28.69
2018-09-06T11:38:57.491Z,27.95
2018-09-06T11:41:26.250Z,27.48
2018-09-06T11:43:55.569Z,28.20
2018-09-06T11:46:24.388Z,27.46
2018-09-06T11:48:53.448Z,27.32
2018-09-06T11:51:22.879Z,27.78
2018-09-06T11:53:51.793Z,28.39
2018-09-06T11:56:20.457Z,28.25
2018-09-06T11:58:49.478Z,27.81
2018-09-06T12:01:18.582Z,27.36
2018-09-06T12:03:47.749Z,27.14
2018-09-06T12:06:17.311Z,27.03
2018-09-06T12:08:46.426Z,26.36
2018-09-06T12:11:15.506Z,25.98
2018-09-06T12:13:44.926Z,26.37
2018-09-06T12:16:13.716Z,26.23
2018-09-06T12:18:42.719Z,26.07
2018-09-06T12:21:12.126Z,25.83
2018-09-06T12:23:40.981Z,25.99
2018-09-06T12:26:09.770Z,25.64
2018-09-06T12:28:38.839Z,25.18
2018-09-06T12:31:08.066Z,25.39
2018-09-06T12:33:38.018Z,25.54
2018-09-06T12:36:07.411Z,25.56
2018-09-06T12:38:36.629Z,25.70
2018-09-06T12:41:05.698Z,25.39
2018-09-06T12:43:35.050Z,25.49
2018-09-06T12:46:04.207Z,25.70
2018-09-06T12:48:33.833Z,25.87
2018-09-06T12:51:02.914Z,25.61
2018-09-06T12:53:32.221Z,25.71
2018-09-06T12:56:00.915Z,25.75
2018-09-06T12:58:30.088Z,25.57
2018-09-06T13:00:59.096Z,25.41
2018-09-06T13:03:27.958Z,25.46
2018-09-06T13:05:57.309Z,25.37
2018-09-06T13:08:26.358Z,24.81
2018-09-06T13:10:55.253Z,25.32
2018-09-06T13:13:24.687Z,25.18
2018-09-06T13:15:53.371Z,25.22
2018-09-06T13:18:22.168Z,25.49
2018-09-06T13:20:51.650Z,25.86
2018-09-06T13:23:20.439Z,26.24
2018-09-06T13:25:49.299Z,26.17
2018-09-06T13:28:18.533Z,25.57
2018-09-06T13:30:47.386Z,25.40
2018-09-06T13:33:16.381Z,25.06
2018-09-06T13:35:45.684Z,25.26
2018-09-06T13:38:14.674Z,25.31
2018-09-06T13:40:43.814Z,25.63
2018-09-06T13:43:13.041Z,26.15
2018-09-06T13:45:42.219Z,26.84
2018-09-06T13:48:10.950Z,27.57
2018-09-06T13:50:40.142Z,27.76
2018-09-06T13:53:08.996Z,27.85
2018-09-06T13:55:37.797Z,28.35
2018-09-06T13:58:06.794Z,28.80
2018-09-06T14:00:35.568Z,29.02
2018-09-06T14:03:04.302Z,29.21
2018-09-06T14:05:33.734Z,29.50
2018-09-06T14:08:02.754Z,29.46
2018-09-06T14:10:31.578Z,29.56
2018-09-06T14:13:00.807Z,30.10
2018-09-06T14:15:30.059Z,30.45
2018-09-06T14:17:58.782Z,29.39
2018-09-06T14:20:28.367Z,29.58
2018-09-06T14:22:57.085Z,29.71
2018-09-06T14:25:25.762Z,29.99
2018-09-06T14:27:54.763Z,29.89
2018-09-06T14:30:23.828Z,29.67
2018-09-06T14:32:52.776Z,29.80
2018-09-06T14:35:21.675Z,29.61
2018-09-06T14:37:50.412Z,29.27
2018-09-06T14:40:19.348Z,29.57
2018-09-06T14:42:48.595Z,29.77
2018-09-06T14:45:17.722Z,29.96
2018-09-06T14:47:46.569Z,29.64
2018-09-06T14:50:15.667Z,30.06
2018-09-06T14:52:44.574Z,30.81
2018-09-06T14:55:13.237Z,30.69
2018-09-06T14:57:42.056Z,30.36
2018-09-06T15:00:10.893Z,30.82
2018-09-06T15:02:39.583Z,30.41
2018-09-06T15:05:08.630Z,30.69
2018-09-06T15:07:37.893Z,30.48
2018-09-06T15:10:07.304Z,30.60
2018-09-06T15:12:36.386Z,30.98
2018-09-06T15:15:05.471Z,30.09
2018-09-06T15:17:34.921Z,30.86
2018-09-06T15:20:04.006Z,31.48
2018-09-06T15:22:32.755Z,30.63
2018-09-06T15:25:01.446Z,30.98
2018-09-06T15:27:30.130Z,30.96
2018-09-06T15:29:59.230Z,29.97
2018-09-06T15:32:28.159Z,30.57
2018-09-06T15:34:56.934Z,30.11
2018-09-06T15:37:25.751Z,29.62
2018-09-06T15:39:54.466Z,30.04
2018-09-06T15:42:23.410Z,29.86
2018-09-06T15:44:52.023Z,29.53
2018-09-06T15:47:21.398Z,28.66
2018-09-06T15:49:50.093Z,29.32
2018-09-06T15:52:18.858Z,29.00
2018-09-06T15:54:47.929Z,28.59
2018-09-06T15:57:16.849Z,28.42
2018-09-06T15:59:45.870Z,28.39
2018-09-06T16:02:15.330Z,27.84
2018-09-06T16:04:44.144Z,27.49
2018-09-06T16:07:13.328Z,27.27
2018-09-06T16:09:42.590Z,27.75
2018-09-06T16:12:11.545Z,26.82
2018-09-06T16:14:40.538Z,26.91
2018-09-06T16:17:09.755Z,26.25
2018-09-06T16:19:38.836Z,26.09
2018-09-06T16:22:07.621Z,25.91
2018-09-06T16:24:36.752Z,25.52
2018-09-06T16:27:05.613Z,25.62
2018-09-06T16:29:34.601Z,25.23
2018-09-06T16:32:03.734Z,25.03
2018-09-06T16:34:32.467Z,24.79
2018-09-06T16:37:01.487Z,24.66
2018-09-06T16:39:30.412Z,24.41
2018-09-06T16:41:59.122Z,24.13
2018-09-06T16:44:28.163Z,23.94
2018-09-06T16:46:57.100Z,24.02
2018-09-06T16:49:26.268Z,23.62
2018-09-06T16:51:55.078Z,23.48
2018-09-06T16:54:24.111Z,23.46
2018-09-06T16:56:52.783Z,23.34
2018-09-06T16:59:21.635Z,23.08
2018-09-06T17:01:50.822Z,22.79
2018-09-06T17:04:19.891Z,22.50
2018-09-06T17:06:48.799Z,22.41
2018-09-06T17:09:17.921Z,22.19
2018-09-06T17:11:46.732Z,22.07
2018-09-06T17:14:15.676Z,21.76
2018-09-06T17:16:44.419Z,21.64
2018-09-06T17:19:13.516Z,21.57
2018-09-06T17:21:42.196Z,21.60
2018-09-06T17:24:10.896Z,21.55
2018-09-06T17:26:39.695Z,21.12
2018-09-06T17:29:08.627Z,21.17
2018-09-06T17:31:37.406Z,21.09
2018-09-06T17:34:06.547Z,21.05
2018-09-06T17:36:35.599Z,21.04
2018-09-06T17:39:06.511Z,20.95
2018-09-06T17:41:35.607Z,20.91
2018-09-06T17:44:04.466Z,20.71
2018-09-06T17:46:33.265Z,20.79
2018-09-06T17:49:02.455Z,20.57
2018-09-06T17:51:31.150Z,20.54
2018-09-06T17:53:59.942Z,20.71
2018-09-06T17:56:28.960Z,20.71
2018-09-06T17:58:58.170Z,20.28
2018-09-06T18:01:33.340Z,20.38
2018-09-06T18:04:02.472Z,20.24
2018-09-06T18:06:31.516Z,20.19
2018-09-06T18:09:00.738Z,20.34
2018-09-06T18:11:30.170Z,20.35
2018-09-06T18:13:59.517Z,20.09
2018-09-06T18:16:28.718Z,20.04
2018-09-06T18:18:57.766Z,20.22
2018-09-06T18:21:27.222Z,20.05
2018-09-06T18:23:57.043Z,19.90
2018-09-06T18:26:26.135Z,19.86
2018-09-06T18:28:55.124Z,19.58
2018-09-06T18:31:24.502Z,19.47
2018-09-06T18:33:53.218Z,19.53
2018-09-06T18:36:22.606Z,19.35
2018-09-06T18:38:52.584Z,19.48
2018-09-06T18:41:21.437Z,19.40
2018-09-06T18:43:50.657Z,19.42
2018-09-06T18:46:20.154Z,19.45
2018-09-06T18:48:49.088Z,19.47
2018-09-06T18:51:17.891Z,19.44
2018-09-06T18:53:46.887Z,19.38
2018-09-06T18:56:15.708Z,19.39
2018-09-06T18:58:44.647Z,19.42
2018-09-06T19:01:14.004Z,19.32
2018-09-06T19:03:42.821Z,19.34
2018-09-06T19:06:11.957Z,19.32
2018-09-06T19:08:41.384Z,19.35
2018-09-06T19:11:10.468Z,19.35
2018-09-06T19:13:39.281Z,19.34
2018-09-06T19:16:08.614Z,19.36
2018-09-06T19:18:37.745Z,19.38
2018-09-06T19:21:06.878Z,19.24
2018-09-06T19:23:35.937Z,19.34
2018-09-06T19:26:04.666Z,19.25
2018-09-06T19:28:33.767Z,19.27
2018-09-06T19:31:03.280Z,19.28
2018-09-06T19:33:32.427Z,19.19
2018-09-06T19:36:01.462Z,19.07
2018-09-06T19:38:30.989Z,19.08
2018-09-06T19:40:59.946Z,19.01
2018-09-06T19:43:28.942Z,19.07
2018-09-06T19:45:58.488Z,18.95
2018-09-06T19:48:27.339Z,18.95
2018-09-06T19:50:56.461Z,19.05
2018-09-06T19:53:25.418Z,19.03
2018-09-06T19:55:54.168Z,19.13
2018-09-06T19:58:22.924Z,18.94
2018-09-06T20:00:52.202Z,18.84
2018-09-06T20:03:21.242Z,18.85
2018-09-06T20:05:50.422Z,18.94
2018-09-06T20:08:19.861Z,18.81
2018-09-06T20:10:48.708Z,18.65
2018-09-06T20:13:17.796Z,18.59
2018-09-06T20:15:47.119Z,18.68
2018-09-06T20:18:15.980Z,18.74
2018-09-06T20:20:44.720Z,18.65
2018-09-06T20:23:13.533Z,18.59
2018-09-06T20:25:42.348Z,18.51
2018-09-06T20:28:11.378Z,18.47
2018-09-06T20:30:40.074Z,18.56
2018-09-06T20:33:09.179Z,18.38
2018-09-06T20:35:38.134Z,18.38
2018-09-06T20:38:07.650Z,18.37
2018-09-06T20:40:37.630Z,18.27
2018-09-06T20:43:06.865Z,18.29
2018-09-06T20:45:35.908Z,18.33
2018-09-06T20:48:05.024Z,18.32
2018-09-06T20:50:33.777Z,18.32
2018-09-06T20:53:02.784Z,18.18
2018-09-06T20:55:31.461Z,18.26
2018-09-06T20:58:00.301Z,18.20
2018-09-06T21:00:29.523Z,18.20
2018-09-06T21:02:58.401Z,18.20
2018-09-06T21:05:27.701Z,18.26
2018-09-06T21:07:57.006Z,18.19
2018-09-06T21:10:26.035Z,18.18
2018-09-06T21:12:54.995Z,18.07
2018-09-06T21:15:24.303Z,18.05
2018-09-06T21:17:55.604Z,18.20
2018-09-06T21:20:24.550Z,18.08
2018-09-06T21:22:53.238Z,17.91
2018-09-06T21:25:22.036Z,18.00
2018-09-06T21:27:51.214Z,18.02
2018-09-06T21:30:20.179Z,17.91
2018-09-06T21:32:49.085Z,17.89
2018-09-06T21:35:23.764Z,17.91
2018-09-06T21:37:52.934Z,17.90
2018-09-06T21:40:22.098Z,17.91
2018-09-06T21:42:51.223Z,17.97
2018-09-06T21:45:20.272Z,18.02
2018-09-06T21:47:49.221Z,18.01
2018-09-06T21:50:18.221Z,18.02
2018-09-06T21:52:46.923Z,17.98
2018-09-06T21:55:15.852Z,18.02
2018-09-06T21:57:45.192Z,18.00
2018-09-06T22:00:14.182Z,18.08
2018-09-06T22:02:48.396Z,18.03
2018-09-06T22:05:17.507Z,18.04
2018-09-06T22:07:46.758Z,18.07
2018-09-06T22:10:15.672Z,18.11
2018-09-06T22:12:44.603Z,18.02
2018-09-06T22:15:13.670Z,18.02
2018-09-06T22:17:42.848Z,17.93
2018-09-06T22:20:11.539Z,18.02
2018-09-06T22:22:40.303Z,18.01
2018-09-06T22:25:09.375Z,18.09
2018-09-06T22:27:38.323Z,18.17
2018-09-06T22:30:07.329Z,18.20
2018-09-06T22:32:36.899Z,18.27
2018-09-06T22:35:05.784Z,18.24
2018-09-06T22:37:34.679Z,18.31
2018-09-06T22:40:03.946Z,18.15
2018-09-06T22:42:32.942Z,18.05
2018-09-06T22:45:01.744Z,18.12
2018-09-06T22:47:30.709Z,18.08
2018-09-06T22:49:59.755Z,18.20
2018-09-06T22:52:28.631Z,18.25
2018-09-06T22:54:57.802Z,18.16
2018-09-06T22:57:26.664Z,18.18
2018-09-06T22:59:55.759Z,18.14
2018-09-06T23:02:29.217Z,17.97
2018-09-06T23:04:58.467Z,18.05
2018-09-06T23:07:27.765Z,17.92
2018-09-06T23:09:56.595Z,17.97
2018-09-06T23:12:25.490Z,17.88
2018-09-06T23:14:54.440Z,17.85
2018-09-06T23:17:23.513Z,17.85
2018-09-06T23:19:52.323Z,17.95
2018-09-06T23:22:21.294Z,17.90
2018-09-06T23:24:50.000Z,17.92
2018-09-06T23:27:18.727Z,17.89
2018-09-06T23:29:48.060Z,17.96
2018-09-06T23:32:17.123Z,17.96
2018-09-06T23:34:45.991Z,18.05
2018-09-06T23:37:15.305Z,18.02
2018-09-06T23:39:44.065Z,18.06
2018-09-06T23:42:13.076Z,18.02
2018-09-06T23:44:42.261Z,17.85
2018-09-06T23:47:11.371Z,17.83
2018-09-06T23:49:40.459Z,17.80
2018-09-06T23:52:09.606Z,17.77
2018-09-06T23:54:38.374Z,17.66
2018-09-06T23:57:07.134Z,17.72
2018-09-06T23:59:35.867Z,17.68
